sensor_id;sensor_type;location;lat;lon;timestamp;P1;durP1;ratioP1;P2;durP2;ratioP2
19043;SDS011;9654;52.302;8.120;2022-10-22T00:00:22;8.20;;;5.93;;
19043;SDS011;9654;52.302;8.120;2022-10-22T00:02:49;7.87;;;6.10;;
19043;SDS011;9654;52.302;8.120;2022-10-22T00:05:16;8.13;;;6.47;;
19043;SDS011;9654;52.302;8.120;2022-10-22T00:07:43;8.30;;;5.90;;
19043;SDS011;9654;52.302;8.120;2022-10-22T00:10:10;8.00;;;6.40;;
19043;SDS011;9654;52.302;8.120;2022-10-22T00:12:36;9.77;;;6.37;;
19043;SDS011;9654;52.302;8.120;2022-10-22T00:15:05;9.83;;;7.00;;
19043;SDS011;9654;52.302;8.120;2022-10-22T00:17:32;7.40;;;6.60;;
19043;SDS011;9654;52.302;8.120;2022-10-22T00:20:00;12.23;;;7.23;;
19043;SDS011;9654;52.302;8.120;2022-10-22T00:22:26;8.47;;;6.33;;
19043;SDS011;9654;52.302;8.120;2022-10-22T00:24:53;8.77;;;6.43;;
19043;SDS011;9654;52.302;8.120;2022-10-22T00:27:20;8.53;;;7.03;;
19043;SDS011;9654;52.302;8.120;2022-10-22T00:29:47;10.87;;;7.03;;
19043;SDS011;9654;52.302;8.120;2022-10-22T00:32:15;7.60;;;6.10;;
19043;SDS011;9654;52.302;8.120;2022-10-22T00:34:42;9.97;;;6.70;;
19043;SDS011;9654;52.302;8.120;2022-10-22T00:37:08;7.60;;;5.93;;
19043;SDS011;9654;52.302;8.120;2022-10-22T00:39:35;9.40;;;6.00;;
19043;SDS011;9654;52.302;8.120;2022-10-22T00:42:02;7.87;;;6.33;;
19043;SDS011;9654;52.302;8.120;2022-10-22T00:47:33;10.70;;;6.90;;
19043;SDS011;9654;52.302;8.120;2022-10-22T00:50:02;9.17;;;6.93;;
19043;SDS011;9654;52.302;8.120;2022-10-22T00:52:31;9.43;;;6.90;;
19043;SDS011;9654;52.302;8.120;2022-10-22T00:54:59;9.33;;;6.33;;
19043;SDS011;9654;52.302;8.120;2022-10-22T00:57:26;8.97;;;6.17;;
19043;SDS011;9654;52.302;8.120;2022-10-22T00:59:53;8.97;;;6.33;;
19043;SDS011;9654;52.302;8.120;2022-10-22T01:02:22;9.83;;;6.63;;
19043;SDS011;9654;52.302;8.120;2022-10-22T01:04:50;10.23;;;6.30;;
19043;SDS011;9654;52.302;8.120;2022-10-22T01:07:18;7.57;;;5.53;;
19043;SDS011;9654;52.302;8.120;2022-10-22T01:09:49;9.03;;;6.53;;
19043;SDS011;9654;52.302;8.120;2022-10-22T01:12:27;10.67;;;7.17;;
19043;SDS011;9654;52.302;8.120;2022-10-22T01:15:03;8.10;;;6.23;;
19043;SDS011;9654;52.302;8.120;2022-10-22T01:17:38;9.33;;;7.20;;
19043;SDS011;9654;52.302;8.120;2022-10-22T01:20:17;9.43;;;6.97;;
19043;SDS011;9654;52.302;8.120;2022-10-22T01:23:00;7.63;;;6.17;;
19043;SDS011;9654;52.302;8.120;2022-10-22T01:25:37;9.60;;;5.83;;
19043;SDS011;9654;52.302;8.120;2022-10-22T01:28:13;10.50;;;6.73;;
19043;SDS011;9654;52.302;8.120;2022-10-22T01:30:50;12.03;;;7.30;;
19043;SDS011;9654;52.302;8.120;2022-10-22T01:33:21;10.30;;;7.13;;
19043;SDS011;9654;52.302;8.120;2022-10-22T01:35:51;9.67;;;7.20;;
19043;SDS011;9654;52.302;8.120;2022-10-22T01:38:19;10.17;;;7.53;;
19043;SDS011;9654;52.302;8.120;2022-10-22T01:40:48;9.63;;;6.77;;
19043;SDS011;9654;52.302;8.120;2022-10-22T01:43:17;12.80;;;7.83;;
19043;SDS011;9654;52.302;8.120;2022-10-22T01:45:46;11.40;;;7.77;;
19043;SDS011;9654;52.302;8.120;2022-10-22T01:48:21;18.47;;;10.10;;
19043;SDS011;9654;52.302;8.120;2022-10-22T01:51:04;11.60;;;8.00;;
19043;SDS011;9654;52.302;8.120;2022-10-22T01:53:44;13.03;;;8.20;;
19043;SDS011;9654;52.302;8.120;2022-10-22T01:56:29;12.83;;;8.17;;
19043;SDS011;9654;52.302;8.120;2022-10-22T01:59:06;10.00;;;7.47;;
19043;SDS011;9654;52.302;8.120;2022-10-22T02:01:40;8.67;;;6.60;;
19043;SDS011;9654;52.302;8.120;2022-10-22T02:04:14;9.27;;;6.37;;
19043;SDS011;9654;52.302;8.120;2022-10-22T02:06:45;9.80;;;7.37;;
19043;SDS011;9654;52.302;8.120;2022-10-22T02:09:15;8.80;;;6.43;;
19043;SDS011;9654;52.302;8.120;2022-10-22T02:11:45;9.07;;;7.03;;
19043;SDS011;9654;52.302;8.120;2022-10-22T02:14:14;10.57;;;7.30;;
19043;SDS011;9654;52.302;8.120;2022-10-22T02:16:44;8.87;;;6.63;;
19043;SDS011;9654;52.302;8.120;2022-10-22T02:19:16;8.63;;;6.77;;
19043;SDS011;9654;52.302;8.120;2022-10-22T02:21:49;12.53;;;7.67;;
19043;SDS011;9654;52.302;8.120;2022-10-22T02:24:17;12.30;;;8.20;;
19043;SDS011;9654;52.302;8.120;2022-10-22T02:26:45;11.63;;;8.13;;
19043;SDS011;9654;52.302;8.120;2022-10-22T02:29:20;11.73;;;7.03;;
19043;SDS011;9654;52.302;8.120;2022-10-22T02:31:52;8.57;;;5.97;;
19043;SDS011;9654;52.302;8.120;2022-10-22T02:34:26;11.20;;;6.60;;
19043;SDS011;9654;52.302;8.120;2022-10-22T02:36:56;10.57;;;7.10;;
19043;SDS011;9654;52.302;8.120;2022-10-22T02:39:25;11.33;;;7.50;;
19043;SDS011;9654;52.302;8.120;2022-10-22T02:41:53;13.67;;;8.83;;
19043;SDS011;9654;52.302;8.120;2022-10-22T02:44:22;13.07;;;7.60;;
19043;SDS011;9654;52.302;8.120;2022-10-22T02:46:50;12.30;;;7.20;;
19043;SDS011;9654;52.302;8.120;2022-10-22T02:49:19;16.37;;;8.50;;
19043;SDS011;9654;52.302;8.120;2022-10-22T02:51:47;11.97;;;7.70;;
19043;SDS011;9654;52.302;8.120;2022-10-22T02:54:13;10.67;;;7.80;;
19043;SDS011;9654;52.302;8.120;2022-10-22T02:56:40;11.37;;;7.80;;
19043;SDS011;9654;52.302;8.120;2022-10-22T02:59:07;11.47;;;7.40;;
19043;SDS011;9654;52.302;8.120;2022-10-22T03:01:34;10.93;;;7.70;;
19043;SDS011;9654;52.302;8.120;2022-10-22T03:04:00;12.73;;;7.80;;
19043;SDS011;9654;52.302;8.120;2022-10-22T03:06:27;10.80;;;7.37;;
19043;SDS011;9654;52.302;8.120;2022-10-22T03:08:55;11.40;;;7.33;;
19043;SDS011;9654;52.302;8.120;2022-10-22T03:11:22;16.47;;;9.10;;
19043;SDS011;9654;52.302;8.120;2022-10-22T03:13:49;12.93;;;7.93;;
19043;SDS011;9654;52.302;8.120;2022-10-22T03:16:15;13.20;;;8.20;;
19043;SDS011;9654;52.302;8.120;2022-10-22T03:18:42;13.13;;;8.00;;
19043;SDS011;9654;52.302;8.120;2022-10-22T03:21:10;14.20;;;8.50;;
19043;SDS011;9654;52.302;8.120;2022-10-22T03:23:46;10.47;;;6.90;;
19043;SDS011;9654;52.302;8.120;2022-10-22T03:26:14;15.63;;;8.90;;
19043;SDS011;9654;52.302;8.120;2022-10-22T03:28:41;11.30;;;7.73;;
19043;SDS011;9654;52.302;8.120;2022-10-22T03:31:10;18.67;;;9.83;;
19043;SDS011;9654;52.302;8.120;2022-10-22T03:33:37;15.13;;;9.30;;
19043;SDS011;9654;52.302;8.120;2022-10-22T03:36:04;20.43;;;11.20;;
19043;SDS011;9654;52.302;8.120;2022-10-22T03:38:33;16.77;;;9.40;;
19043;SDS011;9654;52.302;8.120;2022-10-22T03:41:00;13.40;;;8.90;;
19043;SDS011;9654;52.302;8.120;2022-10-22T03:43:29;15.27;;;9.53;;
19043;SDS011;9654;52.302;8.120;2022-10-22T03:45:55;19.03;;;8.70;;
19043;SDS011;9654;52.302;8.120;2022-10-22T03:48:22;14.53;;;9.40;;
19043;SDS011;9654;52.302;8.120;2022-10-22T03:50:49;13.87;;;8.23;;
19043;SDS011;9654;52.302;8.120;2022-10-22T03:53:16;11.37;;;8.63;;
19043;SDS011;9654;52.302;8.120;2022-10-22T03:55:42;14.73;;;8.60;;
19043;SDS011;9654;52.302;8.120;2022-10-22T03:58:09;18.17;;;9.57;;
19043;SDS011;9654;52.302;8.120;2022-10-22T04:00:37;13.27;;;8.70;;
19043;SDS011;9654;52.302;8.120;2022-10-22T04:03:04;13.67;;;8.93;;
19043;SDS011;9654;52.302;8.120;2022-10-22T04:05:31;15.43;;;9.07;;
19043;SDS011;9654;52.302;8.120;2022-10-22T04:07:58;14.07;;;9.17;;
19043;SDS011;9654;52.302;8.120;2022-10-22T04:10:24;18.77;;;9.07;;
19043;SDS011;9654;52.302;8.120;2022-10-22T04:12:51;13.67;;;8.30;;
19043;SDS011;9654;52.302;8.120;2022-10-22T04:15:18;12.53;;;8.47;;
19043;SDS011;9654;52.302;8.120;2022-10-22T04:17:46;16.03;;;8.80;;
19043;SDS011;9654;52.302;8.120;2022-10-22T04:20:13;14.20;;;8.13;;
19043;SDS011;9654;52.302;8.120;2022-10-22T04:22:39;14.87;;;8.97;;
19043;SDS011;9654;52.302;8.120;2022-10-22T04:25:06;17.60;;;8.97;;
19043;SDS011;9654;52.302;8.120;2022-10-22T04:27:34;12.07;;;8.17;;
19043;SDS011;9654;52.302;8.120;2022-10-22T04:30:01;17.37;;;8.60;;
19043;SDS011;9654;52.302;8.120;2022-10-22T04:32:29;12.37;;;7.87;;
19043;SDS011;9654;52.302;8.120;2022-10-22T04:34:57;14.27;;;7.33;;
19043;SDS011;9654;52.302;8.120;2022-10-22T04:37:23;13.13;;;7.33;;
19043;SDS011;9654;52.302;8.120;2022-10-22T04:39:50;12.53;;;8.00;;
19043;SDS011;9654;52.302;8.120;2022-10-22T04:42:17;13.27;;;8.50;;
19043;SDS011;9654;52.302;8.120;2022-10-22T04:44:43;19.80;;;8.90;;
19043;SDS011;9654;52.302;8.120;2022-10-22T04:47:11;13.07;;;8.33;;
19043;SDS011;9654;52.302;8.120;2022-10-22T04:49:37;9.80;;;7.50;;
19043;SDS011;9654;52.302;8.120;2022-10-22T04:52:06;10.47;;;7.50;;
19043;SDS011;9654;52.302;8.120;2022-10-22T04:54:33;9.70;;;6.90;;
19043;SDS011;9654;52.302;8.120;2022-10-22T04:57:00;12.00;;;8.23;;
19043;SDS011;9654;52.302;8.120;2022-10-22T04:59:26;12.53;;;8.60;;
19043;SDS011;9654;52.302;8.120;2022-10-22T05:01:53;13.40;;;8.07;;
19043;SDS011;9654;52.302;8.120;2022-10-22T05:04:20;11.73;;;7.93;;
19043;SDS011;9654;52.302;8.120;2022-10-22T05:06:47;15.80;;;8.53;;
19043;SDS011;9654;52.302;8.120;2022-10-22T05:09:16;16.47;;;9.60;;
19043;SDS011;9654;52.302;8.120;2022-10-22T05:11:45;17.27;;;10.57;;
19043;SDS011;9654;52.302;8.120;2022-10-22T05:14:14;17.77;;;10.10;;
19043;SDS011;9654;52.302;8.120;2022-10-22T05:16:42;23.57;;;13.20;;
19043;SDS011;9654;52.302;8.120;2022-10-22T05:19:11;19.13;;;11.63;;
19043;SDS011;9654;52.302;8.120;2022-10-22T05:21:41;20.40;;;10.53;;
19043;SDS011;9654;52.302;8.120;2022-10-22T05:24:08;18.03;;;10.30;;
19043;SDS011;9654;52.302;8.120;2022-10-22T05:26:36;16.63;;;10.13;;
19043;SDS011;9654;52.302;8.120;2022-10-22T05:29:02;15.87;;;9.27;;
19043;SDS011;9654;52.302;8.120;2022-10-22T05:31:29;17.70;;;9.73;;
19043;SDS011;9654;52.302;8.120;2022-10-22T05:33:56;17.67;;;11.20;;
19043;SDS011;9654;52.302;8.120;2022-10-22T05:36:23;19.97;;;11.57;;
19043;SDS011;9654;52.302;8.120;2022-10-22T05:38:50;30.27;;;12.30;;
19043;SDS011;9654;52.302;8.120;2022-10-22T05:41:17;23.67;;;12.20;;
19043;SDS011;9654;52.302;8.120;2022-10-22T05:43:47;23.63;;;12.90;;
19043;SDS011;9654;52.302;8.120;2022-10-22T05:46:15;20.07;;;11.17;;
19043;SDS011;9654;52.302;8.120;2022-10-22T05:48:43;18.30;;;9.70;;
19043;SDS011;9654;52.302;8.120;2022-10-22T05:51:14;24.53;;;10.97;;
19043;SDS011;9654;52.302;8.120;2022-10-22T05:53:41;20.77;;;10.03;;
19043;SDS011;9654;52.302;8.120;2022-10-22T05:56:10;15.93;;;10.37;;
19043;SDS011;9654;52.302;8.120;2022-10-22T05:58:38;16.47;;;10.70;;
19043;SDS011;9654;52.302;8.120;2022-10-22T06:01:08;16.40;;;10.30;;
19043;SDS011;9654;52.302;8.120;2022-10-22T06:03:38;20.70;;;10.80;;
19043;SDS011;9654;52.302;8.120;2022-10-22T06:06:06;18.57;;;10.77;;
19043;SDS011;9654;52.302;8.120;2022-10-22T06:08:42;17.03;;;10.17;;
19043;SDS011;9654;52.302;8.120;2022-10-22T06:11:09;21.67;;;10.77;;
19043;SDS011;9654;52.302;8.120;2022-10-22T06:13:36;16.40;;;10.10;;
19043;SDS011;9654;52.302;8.120;2022-10-22T06:16:03;22.10;;;11.07;;
19043;SDS011;9654;52.302;8.120;2022-10-22T06:18:31;16.17;;;9.70;;
19043;SDS011;9654;52.302;8.120;2022-10-22T06:21:02;18.97;;;10.57;;
19043;SDS011;9654;52.302;8.120;2022-10-22T06:23:29;19.97;;;12.60;;
19043;SDS011;9654;52.302;8.120;2022-10-22T06:25:56;22.57;;;12.93;;
19043;SDS011;9654;52.302;8.120;2022-10-22T06:28:23;16.70;;;11.47;;
19043;SDS011;9654;52.302;8.120;2022-10-22T06:30:50;20.57;;;13.37;;
19043;SDS011;9654;52.302;8.120;2022-10-22T06:33:17;24.70;;;13.57;;
19043;SDS011;9654;52.302;8.120;2022-10-22T06:35:45;18.30;;;11.30;;
19043;SDS011;9654;52.302;8.120;2022-10-22T06:38:12;22.93;;;12.00;;
19043;SDS011;9654;52.302;8.120;2022-10-22T06:40:39;21.47;;;11.90;;
19043;SDS011;9654;52.302;8.120;2022-10-22T06:43:07;28.27;;;13.37;;
19043;SDS011;9654;52.302;8.120;2022-10-22T06:45:34;18.30;;;11.43;;
19043;SDS011;9654;52.302;8.120;2022-10-22T06:48:01;19.93;;;11.20;;
19043;SDS011;9654;52.302;8.120;2022-10-22T06:50:28;26.33;;;11.67;;
19043;SDS011;9654;52.302;8.120;2022-10-22T06:52:56;23.13;;;11.63;;
19043;SDS011;9654;52.302;8.120;2022-10-22T06:55:23;23.67;;;12.03;;
19043;SDS011;9654;52.302;8.120;2022-10-22T06:57:49;22.93;;;12.43;;
19043;SDS011;9654;52.302;8.120;2022-10-22T07:00:16;25.20;;;13.67;;
19043;SDS011;9654;52.302;8.120;2022-10-22T07:02:43;24.30;;;13.17;;
19043;SDS011;9654;52.302;8.120;2022-10-22T07:05:16;27.23;;;13.13;;
19043;SDS011;9654;52.302;8.120;2022-10-22T07:07:43;27.47;;;13.17;;
19043;SDS011;9654;52.302;8.120;2022-10-22T07:10:11;26.50;;;12.53;;
19043;SDS011;9654;52.302;8.120;2022-10-22T07:12:38;24.93;;;12.57;;
19043;SDS011;9654;52.302;8.120;2022-10-22T07:15:05;26.47;;;12.20;;
19043;SDS011;9654;52.302;8.120;2022-10-22T07:17:32;27.80;;;11.57;;
19043;SDS011;9654;52.302;8.120;2022-10-22T07:19:59;24.00;;;10.97;;
19043;SDS011;9654;52.302;8.120;2022-10-22T07:22:25;27.03;;;11.60;;
19043;SDS011;9654;52.302;8.120;2022-10-22T07:24:52;27.57;;;11.67;;
19043;SDS011;9654;52.302;8.120;2022-10-22T07:27:20;22.03;;;10.83;;
19043;SDS011;9654;52.302;8.120;2022-10-22T07:29:47;26.47;;;11.23;;
19043;SDS011;9654;52.302;8.120;2022-10-22T07:32:13;19.10;;;10.47;;
19043;SDS011;9654;52.302;8.120;2022-10-22T07:34:40;27.00;;;11.30;;
19043;SDS011;9654;52.302;8.120;2022-10-22T07:37:07;24.93;;;10.80;;
19043;SDS011;9654;52.302;8.120;2022-10-22T07:39:34;27.30;;;10.73;;
19043;SDS011;9654;52.302;8.120;2022-10-22T07:42:01;20.73;;;10.23;;
19043;SDS011;9654;52.302;8.120;2022-10-22T07:44:29;23.53;;;10.93;;
19043;SDS011;9654;52.302;8.120;2022-10-22T07:46:56;21.33;;;11.07;;
19043;SDS011;9654;52.302;8.120;2022-10-22T07:49:22;20.60;;;10.43;;
19043;SDS011;9654;52.302;8.120;2022-10-22T07:51:49;22.80;;;10.77;;
19043;SDS011;9654;52.302;8.120;2022-10-22T07:54:16;24.23;;;11.10;;
19043;SDS011;9654;52.302;8.120;2022-10-22T07:56:43;21.20;;;10.80;;
19043;SDS011;9654;52.302;8.120;2022-10-22T07:59:10;20.63;;;11.73;;
19043;SDS011;9654;52.302;8.120;2022-10-22T08:01:38;23.63;;;12.17;;
19043;SDS011;9654;52.302;8.120;2022-10-22T08:04:04;25.00;;;12.20;;
19043;SDS011;9654;52.302;8.120;2022-10-22T08:06:32;24.07;;;11.30;;
19043;SDS011;9654;52.302;8.120;2022-10-22T08:08:59;20.70;;;12.07;;
19043;SDS011;9654;52.302;8.120;2022-10-22T08:11:26;18.87;;;10.37;;
19043;SDS011;9654;52.302;8.120;2022-10-22T08:13:53;20.53;;;10.33;;
19043;SDS011;9654;52.302;8.120;2022-10-22T08:16:20;13.20;;;8.67;;
19043;SDS011;9654;52.302;8.120;2022-10-22T08:18:48;15.47;;;8.00;;
19043;SDS011;9654;52.302;8.120;2022-10-22T08:21:15;16.20;;;7.43;;
19043;SDS011;9654;52.302;8.120;2022-10-22T08:23:42;12.10;;;6.50;;
19043;SDS011;9654;52.302;8.120;2022-10-22T08:26:09;14.73;;;6.20;;
19043;SDS011;9654;52.302;8.120;2022-10-22T08:28:36;14.03;;;5.73;;
19043;SDS011;9654;52.302;8.120;2022-10-22T08:31:03;12.30;;;5.10;;
19043;SDS011;9654;52.302;8.120;2022-10-22T08:33:31;10.37;;;4.53;;
19043;SDS011;9654;52.302;8.120;2022-10-22T08:35:59;10.27;;;4.80;;
19043;SDS011;9654;52.302;8.120;2022-10-22T08:38:26;9.83;;;5.03;;
19043;SDS011;9654;52.302;8.120;2022-10-22T08:40:55;6.80;;;4.87;;
19043;SDS011;9654;52.302;8.120;2022-10-22T08:43:40;13.03;;;4.40;;
19043;SDS011;9654;52.302;8.120;2022-10-22T08:46:35;12.03;;;4.87;;
19043;SDS011;9654;52.302;8.120;2022-10-22T08:49:18;9.17;;;4.90;;
19043;SDS011;9654;52.302;8.120;2022-10-22T08:51:48;15.07;;;5.43;;
19043;SDS011;9654;52.302;8.120;2022-10-22T08:54:22;13.63;;;4.53;;
19043;SDS011;9654;52.302;8.120;2022-10-22T08:56:59;11.53;;;5.50;;
19043;SDS011;9654;52.302;8.120;2022-10-22T08:59:47;10.00;;;4.97;;
19043;SDS011;9654;52.302;8.120;2022-10-22T09:02:23;12.27;;;5.07;;
19043;SDS011;9654;52.302;8.120;2022-10-22T09:05:01;12.93;;;4.40;;
19043;SDS011;9654;52.302;8.120;2022-10-22T09:07:37;7.57;;;4.10;;
19043;SDS011;9654;52.302;8.120;2022-10-22T09:10:07;8.57;;;4.10;;
19043;SDS011;9654;52.302;8.120;2022-10-22T09:12:36;8.20;;;3.90;;
19043;SDS011;9654;52.302;8.120;2022-10-22T09:15:03;9.20;;;4.30;;
19043;SDS011;9654;52.302;8.120;2022-10-22T09:17:40;10.23;;;3.67;;
19043;SDS011;9654;52.302;8.120;2022-10-22T09:20:19;8.37;;;3.57;;
19043;SDS011;9654;52.302;8.120;2022-10-22T09:22:56;12.07;;;3.90;;
19043;SDS011;9654;52.302;8.120;2022-10-22T09:25:30;10.43;;;3.70;;
19043;SDS011;9654;52.302;8.120;2022-10-22T09:28:01;13.77;;;3.77;;
19043;SDS011;9654;52.302;8.120;2022-10-22T09:30:29;10.87;;;4.30;;
19043;SDS011;9654;52.302;8.120;2022-10-22T09:32:59;13.93;;;3.23;;
19043;SDS011;9654;52.302;8.120;2022-10-22T09:35:33;8.23;;;3.47;;
19043;SDS011;9654;52.302;8.120;2022-10-22T09:38:06;11.63;;;3.70;;
19043;SDS011;9654;52.302;8.120;2022-10-22T09:40:40;7.87;;;3.40;;
19043;SDS011;9654;52.302;8.120;2022-10-22T09:43:09;6.50;;;2.87;;
19043;SDS011;9654;52.302;8.120;2022-10-22T09:45:38;9.27;;;3.77;;
19043;SDS011;9654;52.302;8.120;2022-10-22T09:48:08;14.03;;;3.87;;
19043;SDS011;9654;52.302;8.120;2022-10-22T09:50:39;12.67;;;3.53;;
19043;SDS011;9654;52.302;8.120;2022-10-22T09:53:12;9.43;;;4.03;;
19043;SDS011;9654;52.302;8.120;2022-10-22T09:55:43;7.40;;;3.20;;
19043;SDS011;9654;52.302;8.120;2022-10-22T09:58:14;7.70;;;3.60;;
19043;SDS011;9654;52.302;8.120;2022-10-22T10:00:43;11.80;;;3.80;;
19043;SDS011;9654;52.302;8.120;2022-10-22T10:03:14;6.23;;;3.33;;
19043;SDS011;9654;52.302;8.120;2022-10-22T10:05:42;7.10;;;4.07;;
19043;SDS011;9654;52.302;8.120;2022-10-22T10:08:14;8.20;;;4.33;;
19043;SDS011;9654;52.302;8.120;2022-10-22T10:10:44;10.60;;;5.10;;
19043;SDS011;9654;52.302;8.120;2022-10-22T10:13:19;12.60;;;3.80;;
19043;SDS011;9654;52.302;8.120;2022-10-22T10:15:55;8.87;;;3.70;;
19043;SDS011;9654;52.302;8.120;2022-10-22T10:18:30;11.17;;;3.67;;
19043;SDS011;9654;52.302;8.120;2022-10-22T10:21:08;18.33;;;3.77;;
19043;SDS011;9654;52.302;8.120;2022-10-22T10:23:45;13.83;;;3.73;;
19043;SDS011;9654;52.302;8.120;2022-10-22T10:26:18;9.90;;;3.30;;
19043;SDS011;9654;52.302;8.120;2022-10-22T10:28:54;6.67;;;3.23;;
19043;SDS011;9654;52.302;8.120;2022-10-22T10:31:32;11.70;;;3.67;;
19043;SDS011;9654;52.302;8.120;2022-10-22T10:34:08;11.87;;;3.40;;
19043;SDS011;9654;52.302;8.120;2022-10-22T10:36:43;12.07;;;3.10;;
19043;SDS011;9654;52.302;8.120;2022-10-22T10:39:20;12.27;;;3.30;;
19043;SDS011;9654;52.302;8.120;2022-10-22T10:41:57;7.87;;;2.67;;
19043;SDS011;9654;52.302;8.120;2022-10-22T10:47:32;9.30;;;2.90;;
19043;SDS011;9654;52.302;8.120;2022-10-22T10:50:15;11.13;;;3.27;;
19043;SDS011;9654;52.302;8.120;2022-10-22T10:52:48;10.20;;;2.70;;
19043;SDS011;9654;52.302;8.120;2022-10-22T10:55:27;8.97;;;3.47;;
19043;SDS011;9654;52.302;8.120;2022-10-22T10:58:02;14.07;;;3.60;;
19043;SDS011;9654;52.302;8.120;2022-10-22T11:00:43;9.53;;;3.40;;
19043;SDS011;9654;52.302;8.120;2022-10-22T11:03:31;9.23;;;3.40;;
19043;SDS011;9654;52.302;8.120;2022-10-22T11:06:06;8.30;;;4.07;;
19043;SDS011;9654;52.302;8.120;2022-10-22T11:08:37;8.17;;;3.50;;
19043;SDS011;9654;52.302;8.120;2022-10-22T11:11:09;7.33;;;3.77;;
19043;SDS011;9654;52.302;8.120;2022-10-22T11:13:43;8.37;;;3.77;;
19043;SDS011;9654;52.302;8.120;2022-10-22T11:16:15;15.13;;;3.23;;
19043;SDS011;9654;52.302;8.120;2022-10-22T11:18:46;8.93;;;3.20;;
19043;SDS011;9654;52.302;8.120;2022-10-22T11:21:18;7.43;;;3.67;;
19043;SDS011;9654;52.302;8.120;2022-10-22T11:23:50;10.07;;;3.47;;
19043;SDS011;9654;52.302;8.120;2022-10-22T11:26:26;12.60;;;3.03;;
19043;SDS011;9654;52.302;8.120;2022-10-22T11:29:01;7.90;;;3.17;;
19043;SDS011;9654;52.302;8.120;2022-10-22T11:31:30;6.90;;;3.07;;
19043;SDS011;9654;52.302;8.120;2022-10-22T11:34:00;8.23;;;3.20;;
19043;SDS011;9654;52.302;8.120;2022-10-22T11:36:31;6.27;;;2.90;;
19043;SDS011;9654;52.302;8.120;2022-10-22T11:38:59;12.13;;;3.37;;
19043;SDS011;9654;52.302;8.120;2022-10-22T11:41:30;8.40;;;2.77;;
19043;SDS011;9654;52.302;8.120;2022-10-22T11:44:07;13.27;;;3.33;;
19043;SDS011;9654;52.302;8.120;2022-10-22T11:46:45;11.87;;;3.10;;
19043;SDS011;9654;52.302;8.120;2022-10-22T11:49:23;11.20;;;3.13;;
19043;SDS011;9654;52.302;8.120;2022-10-22T11:52:04;8.57;;;2.93;;
19043;SDS011;9654;52.302;8.120;2022-10-22T11:54:48;12.27;;;2.27;;
19043;SDS011;9654;52.302;8.120;2022-10-22T11:57:21;6.10;;;2.03;;
19043;SDS011;9654;52.302;8.120;2022-10-22T11:59:55;9.87;;;2.63;;
19043;SDS011;9654;52.302;8.120;2022-10-22T12:08:14;8.50;;;2.60;;
19043;SDS011;9654;52.302;8.120;2022-10-22T12:10:48;10.70;;;2.50;;
19043;SDS011;9654;52.302;8.120;2022-10-22T12:13:27;6.20;;;2.20;;
19043;SDS011;9654;52.302;8.120;2022-10-22T12:15:56;7.33;;;2.90;;
19043;SDS011;9654;52.302;8.120;2022-10-22T12:18:29;6.17;;;2.73;;
19043;SDS011;9654;52.302;8.120;2022-10-22T12:20:59;7.93;;;2.80;;
19043;SDS011;9654;52.302;8.120;2022-10-22T12:23:28;10.10;;;2.40;;
19043;SDS011;9654;52.302;8.120;2022-10-22T12:25:57;9.70;;;2.57;;
19043;SDS011;9654;52.302;8.120;2022-10-22T12:28:23;9.07;;;3.00;;
19043;SDS011;9654;52.302;8.120;2022-10-22T12:30:51;8.77;;;2.77;;
19043;SDS011;9654;52.302;8.120;2022-10-22T12:33:19;9.07;;;2.60;;
19043;SDS011;9654;52.302;8.120;2022-10-22T12:35:48;8.33;;;2.60;;
19043;SDS011;9654;52.302;8.120;2022-10-22T12:38:18;9.47;;;2.80;;
19043;SDS011;9654;52.302;8.120;2022-10-22T12:40:46;7.03;;;2.43;;
19043;SDS011;9654;52.302;8.120;2022-10-22T12:43:16;7.00;;;2.70;;
19043;SDS011;9654;52.302;8.120;2022-10-22T12:45:45;7.60;;;3.10;;
19043;SDS011;9654;52.302;8.120;2022-10-22T12:48:16;6.60;;;2.70;;
19043;SDS011;9654;52.302;8.120;2022-10-22T12:50:46;10.20;;;3.17;;
19043;SDS011;9654;52.302;8.120;2022-10-22T12:53:16;6.60;;;2.50;;
19043;SDS011;9654;52.302;8.120;2022-10-22T12:55:45;8.33;;;2.63;;
19043;SDS011;9654;52.302;8.120;2022-10-22T12:58:15;11.80;;;2.30;;
19043;SDS011;9654;52.302;8.120;2022-10-22T13:00:44;6.33;;;2.03;;
19043;SDS011;9654;52.302;8.120;2022-10-22T13:03:24;10.27;;;2.70;;
19043;SDS011;9654;52.302;8.120;2022-10-22T13:05:54;7.53;;;2.90;;
19043;SDS011;9654;52.302;8.120;2022-10-22T13:08:21;7.97;;;3.40;;
19043;SDS011;9654;52.302;8.120;2022-10-22T13:10:52;8.20;;;2.90;;
19043;SDS011;9654;52.302;8.120;2022-10-22T13:13:29;5.40;;;2.50;;
19043;SDS011;9654;52.302;8.120;2022-10-22T13:16:11;5.77;;;2.40;;
19043;SDS011;9654;52.302;8.120;2022-10-22T13:18:44;4.67;;;2.63;;
19043;SDS011;9654;52.302;8.120;2022-10-22T13:21:22;6.90;;;3.00;;
19043;SDS011;9654;52.302;8.120;2022-10-22T13:23:52;7.37;;;2.90;;
19043;SDS011;9654;52.302;8.120;2022-10-22T13:26:20;7.00;;;3.80;;
19043;SDS011;9654;52.302;8.120;2022-10-22T13:28:51;10.67;;;3.53;;
19043;SDS011;9654;52.302;8.120;2022-10-22T13:31:22;9.83;;;3.67;;
19043;SDS011;9654;52.302;8.120;2022-10-22T13:33:52;9.17;;;3.50;;
19043;SDS011;9654;52.302;8.120;2022-10-22T13:36:21;13.60;;;4.30;;
19043;SDS011;9654;52.302;8.120;2022-10-22T13:38:49;8.37;;;3.57;;
19043;SDS011;9654;52.302;8.120;2022-10-22T13:41:19;5.63;;;3.30;;
19043;SDS011;9654;52.302;8.120;2022-10-22T13:43:47;6.77;;;2.90;;
19043;SDS011;9654;52.302;8.120;2022-10-22T13:46:15;6.10;;;3.33;;
19043;SDS011;9654;52.302;8.120;2022-10-22T13:48:42;4.63;;;3.53;;
19043;SDS011;9654;52.302;8.120;2022-10-22T13:51:13;7.07;;;2.87;;
19043;SDS011;9654;52.302;8.120;2022-10-22T13:53:41;6.07;;;3.33;;
19043;SDS011;9654;52.302;8.120;2022-10-22T13:56:11;3.63;;;3.33;;
19043;SDS011;9654;52.302;8.120;2022-10-22T13:58:40;6.70;;;3.60;;
19043;SDS011;9654;52.302;8.120;2022-10-22T14:01:08;6.50;;;3.23;;
19043;SDS011;9654;52.302;8.120;2022-10-22T14:03:43;5.23;;;3.80;;
19043;SDS011;9654;52.302;8.120;2022-10-22T14:06:11;8.77;;;3.70;;
19043;SDS011;9654;52.302;8.120;2022-10-22T14:08:40;5.60;;;3.10;;
19043;SDS011;9654;52.302;8.120;2022-10-22T14:11:09;7.07;;;3.57;;
19043;SDS011;9654;52.302;8.120;2022-10-22T14:13:36;7.80;;;4.10;;
19043;SDS011;9654;52.302;8.120;2022-10-22T14:16:04;6.40;;;3.20;;
19043;SDS011;9654;52.302;8.120;2022-10-22T14:18:31;8.67;;;3.73;;
19043;SDS011;9654;52.302;8.120;2022-10-22T14:20:59;6.27;;;3.37;;
19043;SDS011;9654;52.302;8.120;2022-10-22T14:23:32;10.33;;;3.70;;
19043;SDS011;9654;52.302;8.120;2022-10-22T14:26:01;9.70;;;3.77;;
19043;SDS011;9654;52.302;8.120;2022-10-22T14:28:31;6.97;;;3.20;;
19043;SDS011;9654;52.302;8.120;2022-10-22T14:30:58;5.23;;;3.10;;
19043;SDS011;9654;52.302;8.120;2022-10-22T14:33:26;7.53;;;3.00;;
19043;SDS011;9654;52.302;8.120;2022-10-22T14:35:56;9.17;;;3.13;;
19043;SDS011;9654;52.302;8.120;2022-10-22T14:38:23;7.77;;;3.00;;
19043;SDS011;9654;52.302;8.120;2022-10-22T14:40:51;5.47;;;3.17;;
19043;SDS011;9654;52.302;8.120;2022-10-22T14:43:19;14.43;;;3.73;;
19043;SDS011;9654;52.302;8.120;2022-10-22T14:45:47;7.13;;;2.97;;
19043;SDS011;9654;52.302;8.120;2022-10-22T14:48:15;7.10;;;3.00;;
19043;SDS011;9654;52.302;8.120;2022-10-22T14:50:42;7.00;;;3.93;;
19043;SDS011;9654;52.302;8.120;2022-10-22T14:53:09;6.57;;;3.57;;
19043;SDS011;9654;52.302;8.120;2022-10-22T14:55:37;8.90;;;3.90;;
19043;SDS011;9654;52.302;8.120;2022-10-22T14:58:06;10.87;;;3.30;;
19043;SDS011;9654;52.302;8.120;2022-10-22T15:00:32;11.30;;;3.83;;
19043;SDS011;9654;52.302;8.120;2022-10-22T15:03:00;7.43;;;3.50;;
19043;SDS011;9654;52.302;8.120;2022-10-22T15:05:28;8.73;;;3.13;;
19043;SDS011;9654;52.302;8.120;2022-10-22T15:07:55;9.10;;;3.63;;
19043;SDS011;9654;52.302;8.120;2022-10-22T15:10:23;10.33;;;3.80;;
19043;SDS011;9654;52.302;8.120;2022-10-22T15:12:49;7.20;;;3.47;;
19043;SDS011;9654;52.302;8.120;2022-10-22T15:15:18;8.80;;;3.20;;
19043;SDS011;9654;52.302;8.120;2022-10-22T15:17:44;7.27;;;3.53;;